Terminal Aerodrome Forecast
Issued by NWS

Home | Current Version | Previous Version | Text Only | Print | Product List | Glossary Off
Versions: 1 2 3 4 5 6 7 8 9 10 11 12 13 14 15 16 17 18 19 20 21 22 23 24 25 26 27 28 29

637
FTUS43 KLOT 282102 AAA
TAFDPA
TAF AMD
KDPA 282102Z 2821/2918 28011G18KT P6SM FEW040 SCT250
     FM282230 27010KT P6SM VCSH BKN040
     FM290100 25007KT P6SM SCT100
     FM291500 26013G21KT P6SM SCT060=

USA.gov is the U.S. government's official web portal to all federal, state and local government web resources and services.